Time;durP1;ratioP1;P1;durP2;ratioP2;P2;SDS_P1;SDS_P2;PMS_P1;PMS_P2;Temp;Humidity;BMP_temperature;BMP_pressure;BME280_temperature;BME280_humidity;BME280_pressure;Samples;Min_cycle;Max_cycle;Signal;HPM_P1;HPM_P2
2022/10/14 00:01:04;;;;;;;1.70;1.60;;;22.00;43.30;;;;;;5009241;28;21124;-60
2022/10/14 00:03:30;;;;;;;1.80;1.70;;;22.00;43.30;;;;;;5014661;28;21053;-64
2022/10/14 00:05:56;;;;;;;1.50;1.40;;;22.00;43.30;;;;;;5011912;28;20484;-64
2022/10/14 00:08:23;;;;;;;2.20;1.70;;;22.00;43.30;;;;;;5020031;28;20544;-60
2022/10/14 00:10:49;;;;;;;1.83;1.73;;;22.00;43.60;;;;;;5014727;28;20226;-60
2022/10/14 00:13:15;;;;;;;1.70;1.60;;;22.00;43.30;;;;;;5015545;28;20453;-60
2022/10/14 00:15:41;;;;;;;1.50;1.40;;;22.00;43.30;;;;;;5013662;28;20267;-60
2022/10/14 00:18:07;;;;;;;1.60;1.50;;;22.00;43.40;;;;;;5013835;28;20231;-60
2022/10/14 00:20:33;;;;;;;1.60;1.50;;;22.00;43.30;;;;;;5016050;28;20470;-60
2022/10/14 00:22:59;;;;;;;1.70;1.60;;;22.00;43.30;;;;;;5012042;28;20503;-62
2022/10/14 00:25:25;;;;;;;1.47;1.37;;;22.00;43.40;;;;;;4979108;28;1066484;-60
2022/10/14 00:27:51;;;;;;;1.63;1.53;;;22.00;43.40;;;;;;5013088;28;20947;-60
2022/10/14 00:30:17;;;;;;;1.60;1.50;;;22.00;43.40;;;;;;5016056;28;20459;-60
2022/10/14 00:32:43;;;;;;;1.50;1.40;;;22.00;43.30;;;;;;5013447;28;20531;-60
2022/10/14 00:35:09;;;;;;;1.50;1.40;;;22.00;43.40;;;;;;5015226;28;20301;-60
2022/10/14 00:37:34;;;;;;;1.50;1.40;;;22.00;43.30;;;;;;5016480;28;20665;-63
2022/10/14 00:40:01;;;;;;;1.73;1.63;;;22.00;43.40;;;;;;5009195;28;20462;-60
2022/10/14 00:42:26;;;;;;;1.87;1.77;;;22.00;43.40;;;;;;5016579;28;20693;-61
2022/10/14 00:45:02;;;;;;;1.47;1.37;;;22.00;43.50;;;;;;5016101;28;20531;-61
2022/10/14 00:47:28;;;;;;;1.53;1.43;;;22.00;43.40;;;;;;5011929;28;20310;-63
2022/10/14 00:49:55;;;;;;;1.60;1.50;;;22.00;43.50;;;;;;5009119;28;20479;-61
2022/10/14 00:52:22;;;;;;;1.60;1.50;;;22.00;43.50;;;;;;5008842;28;20551;-61
2022/10/14 00:54:52;;;;;;;1.97;1.87;;;22.00;43.50;;;;;;5011762;28;20507;-63
2022/10/14 00:57:18;;;;;;;1.80;1.70;;;22.00;43.50;;;;;;5006208;28;20469;-60
2022/10/14 00:59:44;;;;;;;1.70;1.60;;;22.00;43.50;;;;;;5014228;28;20464;-60
2022/10/14 01:02:10;;;;;;;1.87;1.77;;;22.00;43.40;;;;;;5015327;28;20940;-60
2022/10/14 01:04:39;;;;;;;2.17;1.60;;;22.00;43.40;;;;;;5012847;28;20228;-61
2022/10/14 01:07:23;;;;;;;1.60;1.50;;;22.00;43.50;;;;;;5009734;28;20770;-60
2022/10/14 01:10:01;;;;;;;1.53;1.43;;;22.00;43.50;;;;;;5018794;28;20555;-60
2022/10/14 01:12:43;;;;;;;1.43;1.33;;;22.00;43.50;;;;;;5019880;28;20826;-64
2022/10/14 01:15:41;;;;;;;1.70;1.60;;;22.00;43.50;;;;;;5016586;28;20452;-61
2022/10/14 01:18:18;;;;;;;1.67;1.57;;;22.00;43.50;;;;;;5021922;28;20433;-60
2022/10/14 01:20:47;;;;;;;1.40;1.30;;;22.00;43.60;;;;;;5010928;28;20586;-61
2022/10/14 01:23:36;;;;;;;1.43;1.33;;;22.00;43.50;;;;;;5000979;28;20485;-63
2022/10/14 01:26:23;;;;;;;1.73;1.63;;;22.00;43.50;;;;;;5005181;28;20492;-63
2022/10/14 01:29:16;;;;;;;1.50;1.40;;;22.00;43.50;;;;;;5014361;28;20468;-62
2022/10/14 01:31:47;;;;;;;1.70;1.60;;;22.00;43.50;;;;;;5000421;28;20495;-60
2022/10/14 01:34:23;;;;;;;1.77;1.67;;;22.00;43.50;;;;;;5015916;28;20467;-60
2022/10/14 01:36:56;;;;;;;1.87;1.77;;;22.00;43.50;;;;;;5010809;28;20467;-59
2022/10/14 01:39:36;;;;;;;1.60;1.50;;;22.00;43.60;;;;;;5008695;28;20472;-60
2022/10/14 01:42:07;;;;;;;1.60;1.50;;;22.00;43.50;;;;;;5012019;28;20541;-60
2022/10/14 01:44:37;;;;;;;1.93;1.33;;;22.00;43.50;;;;;;5013706;28;21244;-60
2022/10/14 01:47:05;;;;;;;1.60;1.50;;;22.00;43.50;;;;;;5016033;28;20531;-62
2022/10/14 01:49:42;;;;;;;1.70;1.60;;;22.00;43.50;;;;;;5020116;28;20464;-60
2022/10/14 01:52:14;;;;;;;1.63;1.53;;;22.00;43.50;;;;;;5013898;28;20529;-64
2022/10/14 01:54:41;;;;;;;1.60;1.50;;;22.00;43.60;;;;;;4991748;28;20444;-61
2022/10/14 01:57:14;;;;;;;1.87;1.77;;;22.00;43.50;;;;;;5008415;28;20811;-60
2022/10/14 01:59:41;;;;;;;1.50;1.40;;;22.00;43.60;;;;;;5010355;28;21252;-61
2022/10/14 02:02:06;;;;;;;2.30;1.90;;;22.00;43.50;;;;;;5016691;28;20990;-65
2022/10/14 02:04:32;;;;;;;1.60;1.50;;;22.00;43.60;;;;;;5013601;28;20447;-60
2022/10/14 02:07:10;;;;;;;1.70;1.60;;;22.00;43.60;;;;;;5012749;28;20210;-64
2022/10/14 02:10:04;;;;;;;1.47;1.37;;;22.00;43.50;;;;;;5007200;28;20235;-60
2022/10/14 02:12:51;;;;;;;1.43;1.33;;;22.00;43.50;;;;;;5013469;28;20514;-60
2022/10/14 02:15:30;;;;;;;1.80;1.70;;;22.00;43.50;;;;;;5009254;28;20954;-61
2022/10/14 02:18:22;;;;;;;1.57;1.47;;;22.00;43.60;;;;;;5018089;28;20493;-61
2022/10/14 02:21:09;;;;;;;1.60;1.50;;;22.00;43.50;;;;;;5003908;28;20588;-60
2022/10/14 02:23:43;;;;;;;1.70;1.60;;;22.00;43.50;;;;;;5010739;28;21029;-61
2022/10/14 02:26:09;;;;;;;1.60;1.50;;;22.00;43.60;;;;;;5013182;28;20450;-64
2022/10/14 02:28:36;;;;;;;4.43;1.97;;;22.00;43.60;;;;;;5012135;28;20448;-60
2022/10/14 02:31:07;;;;;;;1.50;1.40;;;22.00;43.60;;;;;;5008283;28;20483;-59
2022/10/14 02:33:38;;;;;;;1.50;1.40;;;22.00;43.60;;;;;;5013688;28;24014;-64
2022/10/14 02:36:06;;;;;;;1.40;1.30;;;22.00;43.60;;;;;;5005625;28;21481;-59
2022/10/14 02:38:32;;;;;;;1.50;1.40;;;22.00;43.60;;;;;;5010737;28;20470;-59
2022/10/14 02:41:02;;;;;;;1.50;1.40;;;22.00;43.60;;;;;;5017388;28;20450;-60
2022/10/14 02:43:28;;;;;;;1.97;1.77;;;22.00;43.60;;;;;;5018629;28;20511;-62
2022/10/14 02:45:59;;;;;;;1.43;1.33;;;22.00;43.60;;;;;;5013158;28;20492;-60
2022/10/14 02:48:24;;;;;;;1.70;1.60;;;22.00;43.60;;;;;;5015560;28;20230;-59
2022/10/14 02:50:50;;;;;;;1.53;1.43;;;22.00;43.60;;;;;;5015455;28;20456;-63
2022/10/14 02:53:16;;;;;;;1.60;1.50;;;21.90;43.50;;;;;;5024430;28;20320;-60
2022/10/14 02:55:42;;;;;;;1.50;1.40;;;22.00;43.60;;;;;;5022161;28;20211;-61
2022/10/14 02:58:07;;;;;;;1.60;1.50;;;22.00;43.60;;;;;;5020402;28;20500;-60
2022/10/14 03:00:33;;;;;;;1.70;1.60;;;22.00;43.60;;;;;;5017575;28;20314;-60
2022/10/14 03:02:59;;;;;;;1.40;1.30;;;22.00;43.60;;;;;;5022412;28;20238;-60
2022/10/14 03:05:24;;;;;;;1.53;1.43;;;22.00;43.70;;;;;;5021615;28;20233;-61
2022/10/14 03:07:50;;;;;;;1.67;1.57;;;21.90;43.60;;;;;;5019760;28;20225;-61
2022/10/14 03:10:16;;;;;;;1.80;1.70;;;22.00;43.60;;;;;;5017642;28;21307;-60
2022/10/14 03:12:41;;;;;;;1.90;1.37;;;22.00;43.60;;;;;;5026898;28;20898;-60
2022/10/14 03:15:08;;;;;;;1.60;1.50;;;22.00;43.70;;;;;;5026624;28;20279;-60
2022/10/14 03:17:33;;;;;;;1.70;1.60;;;21.90;43.50;;;;;;5017758;28;20277;-61
2022/10/14 03:19:59;;;;;;;1.60;1.50;;;22.00;43.60;;;;;;5011559;28;20567;-62
2022/10/14 03:22:25;;;;;;;1.63;1.53;;;21.90;43.50;;;;;;5010725;28;20277;-61
2022/10/14 03:24:50;;;;;;;1.23;1.13;;;21.90;43.50;;;;;;5011507;28;20416;-61
2022/10/14 03:27:16;;;;;;;1.60;1.50;;;21.90;43.60;;;;;;5015958;28;20581;-65
2022/10/14 03:29:41;;;;;;;1.40;1.30;;;21.90;43.60;;;;;;5017357;28;20219;-60
2022/10/14 03:32:07;;;;;;;1.70;1.60;;;21.90;43.60;;;;;;5016564;28;20238;-61
2022/10/14 03:34:32;;;;;;;1.67;1.57;;;21.90;43.60;;;;;;5020460;28;20690;-60
2022/10/14 03:36:58;;;;;;;1.60;1.50;;;22.00;43.70;;;;;;5023953;28;20222;-60
2022/10/14 03:39:24;;;;;;;1.67;1.57;;;21.90;43.60;;;;;;5009026;28;20258;-59
2022/10/14 03:41:49;;;;;;;1.60;1.50;;;21.90;43.60;;;;;;5022953;28;20246;-60
2022/10/14 03:44:15;;;;;;;1.60;1.50;;;21.90;43.60;;;;;;5020063;28;20479;-62
2022/10/14 03:46:40;;;;;;;1.80;1.70;;;21.90;43.60;;;;;;5027118;28;20233;-60
2022/10/14 03:49:06;;;;;;;1.57;1.47;;;21.90;43.60;;;;;;5013948;28;20224;-61
2022/10/14 03:51:32;;;;;;;2.13;1.53;;;21.90;43.60;;;;;;5019265;28;20219;-60
2022/10/14 03:53:57;;;;;;;1.77;1.67;;;21.90;43.60;;;;;;5015812;28;20242;-60
2022/10/14 03:56:23;;;;;;;1.63;1.53;;;21.90;43.60;;;;;;5009947;28;20243;-61
2022/10/14 03:58:48;;;;;;;1.50;1.40;;;21.90;43.60;;;;;;5023770;28;20249;-60
2022/10/14 04:01:14;;;;;;;1.70;1.60;;;21.90;43.60;;;;;;5012581;28;20229;-64
2022/10/14 04:03:40;;;;;;;1.60;1.50;;;21.90;43.60;;;;;;5006936;28;20308;-59
2022/10/14 04:06:06;;;;;;;1.43;1.33;;;21.90;43.60;;;;;;5012161;28;20222;-60
2022/10/14 04:08:31;;;;;;;1.43;1.33;;;21.90;43.70;;;;;;5003879;28;20476;-61
2022/10/14 04:10:57;;;;;;;1.67;1.57;;;21.90;43.60;;;;;;5013260;28;20218;-60
2022/10/14 04:13:23;;;;;;;1.47;1.37;;;21.90;43.60;;;;;;5014747;28;20461;-60
2022/10/14 04:15:48;;;;;;;1.50;1.40;;;21.90;43.60;;;;;;5010384;28;20225;-60
2022/10/14 04:18:14;;;;;;;1.63;1.53;;;21.90;43.70;;;;;;5011135;28;20225;-62
2022/10/14 04:20:40;;;;;;;1.80;1.70;;;21.90;43.60;;;;;;5012139;28;20228;-60
2022/10/14 04:23:06;;;;;;;1.50;1.40;;;21.90;43.60;;;;;;5015052;28;20242;-60
2022/10/14 04:25:31;;;;;;;1.80;1.70;;;21.90;43.60;;;;;;5014040;28;20230;-60
2022/10/14 04:27:57;;;;;;;1.50;1.40;;;21.90;43.60;;;;;;5019365;28;20470;-62
2022/10/14 04:30:25;;;;;;;1.47;1.37;;;21.90;43.60;;;;;;5020129;28;20265;-62
2022/10/14 04:32:51;;;;;;;1.50;1.40;;;21.90;43.70;;;;;;5008260;28;20752;-63
2022/10/14 04:35:16;;;;;;;1.70;1.60;;;21.90;43.60;;;;;;5017610;28;20478;-64
2022/10/14 04:37:42;;;;;;;1.63;1.53;;;21.90;43.60;;;;;;5011148;28;20226;-61
2022/10/14 04:40:08;;;;;;;1.40;1.30;;;21.90;43.60;;;;;;5012064;28;20624;-64
2022/10/14 04:42:33;;;;;;;1.70;1.60;;;21.90;43.60;;;;;;5010772;28;20230;-63
2022/10/14 04:44:59;;;;;;;1.60;1.50;;;21.90;43.70;;;;;;5013445;28;20959;-61
2022/10/14 04:47:24;;;;;;;1.70;1.60;;;21.90;43.70;;;;;;5010943;28;20245;-63
2022/10/14 04:49:50;;;;;;;1.90;1.80;;;21.90;43.80;;;;;;5013898;28;20239;-61
2022/10/14 04:52:15;;;;;;;1.70;1.60;;;21.90;43.70;;;;;;5009506;28;20257;-63
2022/10/14 04:54:41;;;;;;;1.47;1.37;;;21.90;43.70;;;;;;5023830;28;20253;-61
2022/10/14 04:57:06;;;;;;;1.80;1.70;;;21.90;43.70;;;;;;5015939;28;21516;-60
2022/10/14 04:59:33;;;;;;;1.60;1.50;;;21.90;43.70;;;;;;5019907;28;20218;-60
2022/10/14 05:01:58;;;;;;;1.70;1.60;;;21.90;43.70;;;;;;5015537;28;20686;-60
2022/10/14 05:04:24;;;;;;;1.70;1.60;;;21.90;43.60;;;;;;5009134;28;20522;-63
2022/10/14 05:06:50;;;;;;;1.40;1.30;;;22.00;43.70;;;;;;5013517;28;20223;-61
2022/10/14 05:09:15;;;;;;;1.67;1.57;;;21.90;43.60;;;;;;5008895;28;20226;-61
2022/10/14 05:11:41;;;;;;;1.50;1.40;;;22.00;43.80;;;;;;5015052;28;20245;-61
2022/10/14 05:14:06;;;;;;;1.40;1.30;;;22.00;43.70;;;;;;5008565;28;20233;-60
2022/10/14 05:16:32;;;;;;;1.67;1.57;;;22.00;43.70;;;;;;5009582;28;20265;-61
2022/10/14 05:18:57;;;;;;;1.70;1.60;;;22.00;43.60;;;;;;5009485;28;20219;-60
2022/10/14 05:21:23;;;;;;;1.60;1.50;;;22.00;43.60;;;;;;5010254;28;20632;-63
2022/10/14 05:23:48;;;;;;;1.90;1.80;;;22.00;43.60;;;;;;5016151;28;20230;-61
2022/10/14 05:26:14;;;;;;;1.83;1.73;;;22.00;43.60;;;;;;5013087;28;20245;-62
2022/10/14 05:28:40;;;;;;;1.47;1.37;;;22.00;43.70;;;;;;5013016;28;20548;-64
2022/10/14 05:31:05;;;;;;;1.43;1.33;;;22.00;43.60;;;;;;5006632;28;20219;-61
2022/10/14 05:33:31;;;;;;;1.73;1.63;;;22.00;43.60;;;;;;5000668;28;20227;-61
2022/10/14 05:35:57;;;;;;;1.60;1.50;;;22.00;43.60;;;;;;4998132;28;20306;-61
2022/10/14 05:38:23;;;;;;;1.70;1.60;;;22.00;43.60;;;;;;5009428;28;20570;-60
2022/10/14 05:40:55;;;;;;;1.60;1.50;;;22.00;43.60;;;;;;4989856;28;20264;-60
2022/10/14 05:43:23;;;;;;;1.60;1.50;;;22.00;43.60;;;;;;5008881;28;20226;-61
2022/10/14 05:45:49;;;;;;;1.70;1.60;;;22.00;43.50;;;;;;5012784;28;20577;-62
2022/10/14 05:48:14;;;;;;;1.77;1.67;;;22.00;43.60;;;;;;4996846;28;20658;-62
2022/10/14 05:50:41;;;;;;;1.40;1.30;;;22.00;43.60;;;;;;5013957;28;20241;-62
2022/10/14 05:53:07;;;;;;;7.80;1.40;;;22.00;43.50;;;;;;5004194;28;20585;-61
2022/10/14 05:55:32;;;;;;;1.43;1.33;;;22.00;43.60;;;;;;5008145;28;20424;-61
2022/10/14 05:57:58;;;;;;;1.60;1.50;;;22.00;43.50;;;;;;5006495;28;20226;-62
2022/10/14 06:00:23;;;;;;;2.30;1.60;;;22.00;43.50;;;;;;5003741;28;20219;-61
2022/10/14 06:02:49;;;;;;;1.60;1.50;;;22.00;43.60;;;;;;5003088;28;20235;-61
2022/10/14 06:05:15;;;;;;;1.53;1.43;;;22.00;43.60;;;;;;4998843;28;20284;-63
2022/10/14 06:07:40;;;;;;;1.57;1.47;;;22.00;43.60;;;;;;5002816;28;20219;-61
2022/10/14 06:10:06;;;;;;;1.50;1.40;;;22.00;43.50;;;;;;5013869;28;20366;-59
2022/10/14 06:12:31;;;;;;;1.80;1.70;;;22.00;43.50;;;;;;4997218;28;20229;-60
2022/10/14 06:14:57;;;;;;;1.70;1.60;;;22.00;43.50;;;;;;4996216;28;20258;-60
2022/10/14 06:17:23;;;;;;;3.40;1.83;;;22.00;43.50;;;;;;5006224;28;20218;-61
2022/10/14 06:19:48;;;;;;;1.60;1.50;;;22.00;43.50;;;;;;5008258;28;20210;-61
2022/10/14 06:22:14;;;;;;;1.67;1.57;;;22.00;43.50;;;;;;5002942;28;20226;-62
2022/10/14 06:24:39;;;;;;;1.50;1.40;;;22.00;43.60;;;;;;5022727;28;20225;-61
2022/10/14 06:27:05;;;;;;;1.50;1.40;;;22.00;43.60;;;;;;5009911;28;20601;-61
2022/10/14 06:29:36;;;;;;;1.60;1.50;;;22.00;43.50;;;;;;5009224;28;20222;-60
2022/10/14 06:32:03;;;;;;;1.50;1.40;;;22.00;44.30;;;;;;5012768;28;20214;-63
2022/10/14 06:34:28;;;;;;;1.50;1.40;;;22.00;43.50;;;;;;5011850;28;20467;-61
2022/10/14 06:36:54;;;;;;;1.60;1.50;;;22.00;43.50;;;;;;5018854;28;20456;-62
2022/10/14 06:39:19;;;;;;;2.07;1.50;;;22.00;43.60;;;;;;5013113;28;20564;-62
2022/10/14 06:41:45;;;;;;;1.30;1.20;;;22.00;43.50;;;;;;5015572;28;20218;-63
2022/10/14 06:44:11;;;;;;;1.60;1.50;;;22.00;43.60;;;;;;5013203;28;20220;-61
2022/10/14 06:46:36;;;;;;;1.43;1.33;;;22.10;43.70;;;;;;5009268;28;20276;-63
2022/10/14 06:49:02;;;;;;;2.73;1.60;;;22.00;43.50;;;;;;5012309;28;20564;-62
2022/10/14 06:51:27;;;;;;;1.63;1.53;;;22.00;43.50;;;;;;5009838;28;20222;-61
2022/10/14 06:53:53;;;;;;;1.63;1.53;;;22.00;43.50;;;;;;5014496;28;20223;-62
2022/10/14 06:56:18;;;;;;;1.80;1.70;;;22.10;43.60;;;;;;5007482;28;20591;-61
2022/10/14 06:58:44;;;;;;;1.90;1.80;;;22.10;43.60;;;;;;5009444;28;20284;-62
2022/10/14 07:01:09;;;;;;;1.90;1.37;;;22.10;43.60;;;;;;5006480;28;20226;-62
2022/10/14 07:03:37;;;;;;;1.40;1.30;;;22.10;43.60;;;;;;4990443;28;20344;-62
2022/10/14 07:06:04;;;;;;;1.50;1.40;;;22.10;43.60;;;;;;5003548;28;23456;-61
2022/10/14 07:08:30;;;;;;;1.50;1.40;;;22.10;43.60;;;;;;5013052;28;20554;-63
2022/10/14 07:10:55;;;;;;;1.53;1.43;;;22.10;43.60;;;;;;4996752;28;20518;-62
2022/10/14 07:13:21;;;;;;;1.70;1.60;;;22.10;43.60;;;;;;5020351;28;20225;-61
2022/10/14 07:15:48;;;;;;;1.63;1.30;;;22.10;43.60;;;;;;5016316;28;20392;-63
2022/10/14 07:18:14;;;;;;;1.53;1.43;;;22.10;43.60;;;;;;5011486;28;20231;-60
2022/10/14 07:20:40;;;;;;;1.60;1.50;;;22.10;43.60;;;;;;5003421;28;20464;-64
2022/10/14 07:23:05;;;;;;;1.50;1.40;;;22.10;43.60;;;;;;5010539;28;20794;-61
2022/10/14 07:25:31;;;;;;;1.60;1.50;;;22.10;43.50;;;;;;5007318;28;20239;-61
2022/10/14 07:27:58;;;;;;;1.33;1.23;;;22.10;43.60;;;;;;5011386;28;20215;-61
2022/10/14 07:30:23;;;;;;;1.33;1.23;;;22.10;43.50;;;;;;5010963;28;20539;-61
2022/10/14 07:32:49;;;;;;;1.70;1.60;;;22.10;43.60;;;;;;5012990;28;20804;-61
2022/10/14 07:35:15;;;;;;;1.53;1.43;;;22.10;43.60;;;;;;5006252;28;20226;-63
2022/10/14 07:37:40;;;;;;;1.40;1.30;;;22.10;43.60;;;;;;5016343;28;20678;-64
2022/10/14 07:40:07;;;;;;;2.13;1.40;;;22.10;43.60;;;;;;5009011;28;20625;-62
2022/10/14 07:42:33;;;;;;;1.47;1.33;;;22.10;43.60;;;;;;5012973;28;20986;-62
2022/10/14 07:44:58;;;;;;;1.60;1.50;;;22.10;43.50;;;;;;5015938;28;20448;-62
2022/10/14 07:47:24;;;;;;;1.60;1.50;;;22.10;43.60;;;;;;5005643;28;20491;-62
2022/10/14 07:49:49;;;;;;;2.50;2.33;;;22.10;43.60;;;;;;5008645;28;20793;-61
2022/10/14 07:52:18;;;;;;;1.50;1.40;;;22.10;43.60;;;;;;5014929;28;20223;-61
2022/10/14 07:54:44;;;;;;;1.50;1.40;;;22.10;43.60;;;;;;5007207;28;20282;-61
2022/10/14 07:57:10;;;;;;;1.50;1.40;;;22.10;43.60;;;;;;5007792;28;20599;-64
2022/10/14 07:59:36;;;;;;;1.73;1.53;;;22.10;43.60;;;;;;5011370;28;20482;-61
2022/10/14 08:02:03;;;;;;;1.50;1.40;;;22.10;43.60;;;;;;5015614;28;20257;-61
2022/10/14 08:04:29;;;;;;;1.47;1.37;;;22.10;43.60;;;;;;5016834;28;20738;-62
2022/10/14 08:06:54;;;;;;;1.80;1.70;;;22.10;43.50;;;;;;5014748;28;20470;-62
2022/10/14 08:09:20;;;;;;;1.70;1.60;;;22.10;43.60;;;;;;5018438;28;20230;-63
2022/10/14 08:11:46;;;;;;;1.60;1.50;;;22.10;43.60;;;;;;5019592;28;20547;-61
2022/10/14 08:14:12;;;;;;;1.40;1.30;;;22.10;43.60;;;;;;5020776;28;20471;-61
2022/10/14 08:16:39;;;;;;;1.50;1.40;;;22.10;43.60;;;;;;5004587;28;20219;-62
2022/10/14 08:19:08;;;;;;;1.40;1.30;;;22.10;43.60;;;;;;5027139;28;20439;-61
2022/10/14 08:21:33;;;;;;;1.30;1.20;;;22.10;43.60;;;;;;5009064;28;20487;-61
2022/10/14 08:23:59;;;;;;;1.40;1.30;;;22.10;43.60;;;;;;5016084;28;20468;-61
2022/10/14 08:26:29;;;;;;;1.23;1.13;;;22.10;43.60;;;;;;5011245;28;20339;-61
2022/10/14 08:28:56;;;;;;;1.63;1.53;;;22.10;43.60;;;;;;5016599;28;20824;-60
2022/10/14 08:31:21;;;;;;;1.43;1.20;;;22.10;43.60;;;;;;5013224;28;20444;-61
2022/10/14 08:33:47;;;;;;;1.47;1.37;;;22.10;43.60;;;;;;4999855;28;20476;-61
2022/10/14 08:36:14;;;;;;;1.43;1.33;;;22.10;43.60;;;;;;5019590;28;20254;-60
2022/10/14 08:38:40;;;;;;;1.47;1.37;;;22.10;43.60;;;;;;5012414;28;20697;-60
2022/10/14 08:41:12;;;;;;;1.63;1.30;;;22.10;43.60;;;;;;5009848;28;20452;-62
2022/10/14 08:43:43;;;;;;;2.80;1.50;;;22.10;43.60;;;;;;5009129;28;20564;-61
2022/10/14 08:46:19;;;;;;;1.40;1.13;;;22.00;43.60;;;;;;5006181;28;20532;-60
2022/10/14 08:48:46;;;;;;;1.47;1.30;;;22.00;43.60;;;;;;5018327;28;20440;-60
2022/10/14 08:51:15;;;;;;;1.47;1.37;;;22.00;43.70;;;;;;5022476;28;20479;-60
2022/10/14 08:53:49;;;;;;;1.57;1.47;;;22.10;43.70;;;;;;5010695;28;22178;-64
2022/10/14 08:56:16;;;;;;;2.23;1.30;;;22.10;43.70;;;;;;5011250;28;20509;-62
2022/10/14 08:58:50;;;;;;;2.03;1.40;;;22.10;43.70;;;;;;5012609;28;20449;-63
2022/10/14 09:01:28;;;;;;;1.30;1.20;;;22.10;43.70;;;;;;5012029;28;20456;-63
2022/10/14 09:04:01;;;;;;;1.27;1.17;;;22.00;43.70;;;;;;5008449;28;21128;-60
2022/10/14 09:06:29;;;;;;;1.60;1.50;;;22.00;43.60;;;;;;5008783;28;20468;-63
2022/10/14 09:09:16;;;;;;;1.50;1.40;;;22.10;43.70;;;;;;5012536;28;20480;-61
2022/10/14 09:11:44;;;;;;;1.30;1.20;;;22.00;43.70;;;;;;5011683;28;20894;-61
2022/10/14 09:14:17;;;;;;;1.40;1.30;;;22.00;43.70;;;;;;5004708;28;21088;-60
2022/10/14 09:16:45;;;;;;;1.40;1.30;;;22.10;43.70;;;;;;5016171;28;21074;-61
2022/10/14 09:19:29;;;;;;;1.30;1.20;;;22.00;43.70;;;;;;5013452;28;21066;-61
2022/10/14 09:21:55;;;;;;;1.37;1.27;;;22.10;43.70;;;;;;5017644;28;20461;-62
2022/10/14 09:24:24;;;;;;;1.90;1.33;;;22.10;43.70;;;;;;5017094;28;21057;-61
2022/10/14 09:26:54;;;;;;;1.50;1.40;;;22.00;43.70;;;;;;5007939;28;20230;-60
2022/10/14 09:30:03;;;;;;;1.30;1.20;;;22.00;43.70;;;;;;5000297;28;20577;-61
2022/10/14 09:32:43;;;;;;;1.37;1.27;;;22.00;43.70;;;;;;4981594;28;20967;-60
2022/10/14 09:35:15;;;;;;;3.67;1.30;;;22.00;43.70;;;;;;5013617;28;20525;-60
2022/10/14 09:37:41;;;;;;;1.40;1.30;;;22.00;43.80;;;;;;5007521;28;20498;-61
2022/10/14 09:40:28;;;;;;;1.33;1.23;;;22.00;43.70;;;;;;5014397;28;20530;-63
2022/10/14 09:43:09;;;;;;;1.37;1.27;;;22.00;43.70;;;;;;5013657;28;20254;-60
2022/10/14 09:46:06;;;;;;;1.50;1.40;;;22.00;43.80;;;;;;5009906;28;22597;-61
2022/10/14 09:48:41;;;;;;;1.37;1.27;;;22.00;43.70;;;;;;5010972;28;20472;-60
2022/10/14 09:51:22;;;;;;;1.50;1.40;;;22.00;43.70;;;;;;4998358;28;20808;-60
2022/10/14 09:54:00;;;;;;;1.30;1.20;;;22.00;43.70;;;;;;5013002;28;20453;-61
2022/10/14 09:56:35;;;;;;;1.30;1.20;;;22.00;43.70;;;;;;5018853;28;20967;-60
2022/10/14 09:59:03;;;;;;;1.30;1.20;;;22.00;43.80;;;;;;5013632;28;20494;-63
2022/10/14 10:01:35;;;;;;;1.23;1.13;;;22.00;43.80;;;;;;5012475;28;20549;-60
2022/10/14 10:04:40;;;;;;;1.20;1.10;;;22.00;43.80;;;;;;5012135;28;20562;-60
2022/10/14 10:07:31;;;;;;;1.40;1.30;;;22.00;43.70;;;;;;5010650;28;20543;-62
2022/10/14 10:09:58;;;;;;;1.50;1.40;;;22.00;43.70;;;;;;5015994;28;20471;-61
2022/10/14 10:12:32;;;;;;;1.50;1.40;;;22.00;43.80;;;;;;5012857;28;20483;-60
2022/10/14 10:15:02;;;;;;;1.23;1.13;;;22.00;43.80;;;;;;5023447;28;21068;-60
2022/10/14 10:17:31;;;;;;;1.50;1.40;;;22.00;43.80;;;;;;5019047;28;20506;-64
2022/10/14 10:20:27;;;;;;;1.23;1.13;;;22.00;43.70;;;;;;5017362;28;20487;-62
2022/10/14 10:22:54;;;;;;;1.30;1.20;;;22.00;43.70;;;;;;5002337;28;21161;-62
2022/10/14 10:25:25;;;;;;;1.30;1.20;;;22.00;43.80;;;;;;5014688;28;20469;-63
2022/10/14 10:27:52;;;;;;;1.30;1.20;;;22.00;43.80;;;;;;5014085;28;20547;-62
2022/10/14 10:30:19;;;;;;;1.27;1.17;;;22.00;43.80;;;;;;5015791;28;20452;-65
2022/10/14 10:33:12;;;;;;;1.50;1.40;;;22.00;43.80;;;;;;5001396;28;20579;-61
2022/10/14 10:36:01;;;;;;;1.37;1.27;;;22.00;43.80;;;;;;5007560;28;21724;-62
2022/10/14 10:38:58;;;;;;;1.23;1.13;;;22.00;43.70;;;;;;5012218;28;20567;-62
2022/10/14 10:41:44;;;;;;;1.43;1.33;;;22.00;43.70;;;;;;5013722;28;20979;-61
2022/10/14 10:44:31;;;;;;;1.70;1.23;;;22.00;43.80;;;;;;5020457;28;20478;-63
2022/10/14 10:47:02;;;;;;;1.30;1.20;;;22.00;43.80;;;;;;5016731;28;20464;-63
2022/10/14 10:49:53;;;;;;;1.30;1.20;;;22.00;43.80;;;;;;5015599;28;20464;-61
2022/10/14 10:52:33;;;;;;;1.37;1.27;;;22.00;43.80;;;;;;5020675;28;20551;-62
2022/10/14 10:55:17;;;;;;;1.20;1.10;;;22.00;43.80;;;;;;5012054;28;20467;-62
2022/10/14 10:57:56;;;;;;;1.30;1.20;;;22.00;43.80;;;;;;5018322;28;20474;-61
2022/10/14 11:00:22;;;;;;;1.43;1.33;;;22.00;43.80;;;;;;5020913;28;21097;-61
2022/10/14 11:03:14;;;;;;;1.20;1.10;;;22.00;43.80;;;;;;5018472;28;20502;-61
2022/10/14 11:12:01;;;;;;;1.30;1.20;;;22.00;43.80;;;;;;5014264;28;20447;-61
2022/10/14 11:12:14;;;;;;;1.00;1.00;;;22.00;43.80;;;;;;5011767;28;20966;-63
2022/10/14 11:14:45;;;;;;;1.20;1.10;;;22.00;43.90;;;;;;5008095;28;20451;-61
2022/10/14 11:17:39;;;;;;;1.30;1.20;;;22.00;43.80;;;;;;5013461;28;20443;-62
2022/10/14 11:20:22;;;;;;;1.20;1.10;;;22.00;43.90;;;;;;5017724;28;20458;-61
2022/10/14 11:23:23;;;;;;;1.20;1.10;;;22.00;43.80;;;;;;5018635;28;20464;-61
2022/10/14 11:26:13;;;;;;;1.30;1.20;;;22.00;43.80;;;;;;5010423;28;20531;-61
2022/10/14 11:29:09;;;;;;;1.10;1.00;;;22.00;43.80;;;;;;5014422;28;20495;-63
2022/10/14 11:31:50;;;;;;;1.20;1.10;;;21.90;43.70;;;;;;5014236;28;20482;-62
2022/10/14 11:34:18;;;;;;;1.23;1.13;;;22.00;43.80;;;;;;5021341;28;20435;-61
2022/10/14 11:36:56;;;;;;;1.13;1.03;;;22.00;43.80;;;;;;5016216;28;20456;-62
2022/10/14 11:39:46;;;;;;;1.17;1.07;;;21.90;43.70;;;;;;5008577;28;21002;-62
2022/10/14 11:43:06;;;;;;;1.33;1.23;;;22.00;43.80;;;;;;5012506;28;20995;-64
2022/10/14 11:45:58;;;;;;;1.17;1.07;;;21.90;43.70;;;;;;4983367;28;20483;-61
2022/10/14 11:48:53;;;;;;;4.23;1.60;;;21.90;43.70;;;;;;5014363;28;20911;-61
2022/10/14 11:51:24;;;;;;;0.90;0.90;;;22.00;44.70;;;;;;5016543;28;20496;-62
2022/10/14 11:54:11;;;;;;;1.23;1.13;;;21.90;43.70;;;;;;5008904;28;20492;-62
2022/10/14 11:56:56;;;;;;;1.20;1.10;;;21.90;43.70;;;;;;5008122;28;20455;-61
2022/10/14 12:02:57;;;;;;;1.37;1.27;;;21.90;43.70;;;;;;5017276;28;20475;-64
2022/10/14 12:05:47;;;;;;;1.30;1.20;;;21.90;43.70;;;;;;5019467;28;20527;-63
2022/10/14 12:08:31;;;;;;;1.30;1.20;;;22.00;43.80;;;;;;5009727;28;20464;-64
2022/10/14 12:11:04;;;;;;;1.50;1.40;;;22.00;43.80;;;;;;5013282;28;20480;-64
2022/10/14 12:13:47;;;;;;;1.20;1.10;;;22.00;43.80;;;;;;5011287;28;20475;-62
2022/10/14 12:16:15;;;;;;;1.30;1.20;;;22.00;43.70;;;;;;5018296;28;20468;-62
2022/10/14 12:18:43;;;;;;;3.57;1.60;;;22.00;43.70;;;;;;5013432;28;20452;-63
2022/10/14 12:21:23;;;;;;;8.60;1.53;;;22.00;43.70;;;;;;5015293;28;20460;-63
2022/10/14 12:23:53;;;;;;;2.57;1.50;;;22.00;43.60;;;;;;5020895;28;20567;-63
2022/10/14 12:26:19;;;;;;;3.40;1.93;;;22.00;43.60;;;;;;5009601;28;20547;-65
2022/10/14 12:28:45;;;;;;;4.23;1.30;;;22.00;43.50;;;;;;5009770;28;20452;-64
2022/10/14 12:31:38;;;;;;;6.43;1.80;;;22.00;43.40;;;;;;5014565;28;20235;-62
2022/10/14 12:34:12;;;;;;;2.07;1.60;;;22.00;43.40;;;;;;5016591;28;20472;-62
2022/10/14 12:36:43;;;;;;;2.23;1.47;;;22.00;43.40;;;;;;5006006;28;20451;-63
2022/10/14 12:39:18;;;;;;;1.67;1.57;;;22.00;43.30;;;;;;5009297;28;20468;-63
2022/10/14 12:41:58;;;;;;;2.23;1.80;;;22.00;43.30;;;;;;5008660;28;20802;-63
2022/10/14 12:44:40;;;;;;;1.60;1.50;;;22.00;43.20;;;;;;4998273;28;20522;-62
2022/10/14 12:47:19;;;;;;;3.60;1.60;;;21.90;43.10;;;;;;5004760;28;20423;-62
2022/10/14 12:49:54;;;;;;;2.80;1.70;;;22.00;42.80;;;;;;5022618;28;20218;-62
2022/10/14 12:52:24;;;;;;;3.50;1.53;;;22.10;42.80;;;;;;5021207;28;20548;-62
2022/10/14 12:54:50;;;;;;;2.90;1.80;;;22.00;42.80;;;;;;5025946;28;21306;-62
2022/10/14 12:57:32;;;;;;;3.50;1.70;;;22.00;42.90;;;;;;5016663;28;20459;-64
2022/10/14 13:00:24;;;;;;;1.40;1.30;;;22.00;42.90;;;;;;5019914;28;20553;-62
2022/10/14 13:02:59;;;;;;;1.70;1.60;;;22.00;43.00;;;;;;5019253;28;21047;-63
2022/10/14 13:05:35;;;;;;;1.83;1.63;;;22.00;43.00;;;;;;5014024;28;20451;-63
2022/10/14 13:08:19;;;;;;;2.10;1.87;;;22.00;43.00;;;;;;5024840;28;20455;-62
2022/10/14 13:11:25;;;;;;;1.57;1.47;;;22.00;43.10;;;;;;5014140;28;20586;-62
2022/10/14 13:13:59;;;;;;;1.40;1.30;;;22.00;43.10;;;;;;5021738;28;20459;-61
2022/10/14 13:16:24;;;;;;;3.83;1.47;;;22.00;43.10;;;;;;5009831;28;20889;-61